Time;durP1;ratioP1;P1;durP2;ratioP2;P2;SDS_P1;SDS_P2;PMS_P1;PMS_P2;Temp;Humidity;BMP_temperature;BMP_pressure;BME280_temperature;BME280_humidity;BME280_pressure;Samples;Min_cycle;Max_cycle;Signal;HPM_P1;HPM_P2
2022/02/01 00:02:17;;;;;;;9.75;3.10;;;;;;;;;;4980345;28;20034;-63
2022/02/01 00:04:58;;;;;;;5.78;1.27;;;;;;;;;;4980603;28;20099;-61
2022/02/01 00:08:17;;;;;;;13.70;1.90;;;;;;;;;;4978638;28;20482;-62
2022/02/01 00:10:24;;;;;;;17.33;1.80;;;;;;;;;;4977897;28;20057;-63
2022/02/01 00:18:27;;;;;;;19.23;1.60;;;;;;;;;;4996119;28;20049;-62
2022/02/01 00:38:14;;;;;;;9.25;1.30;;;;;;;;;;4977842;28;20445;-62
2022/02/01 00:40:43;;;;;;;18.70;1.88;;;;;;;;;;4979648;28;20232;-61
2022/02/01 00:43:12;;;;;;;13.65;1.42;;;;;;;;;;4979841;28;20165;-62
2022/02/01 00:45:39;;;;;;;4.85;1.15;;;;;;;;;;4966497;28;20089;-63
2022/02/01 00:48:12;;;;;;;8.88;1.30;;;;;;;;;;4979693;28;20033;-62
2022/02/01 00:50:37;;;;;;;11.65;1.23;;;;;;;;;;4954409;28;20072;-62
2022/02/01 00:53:03;;;;;;;13.23;1.42;;;;;;;;;;4985153;28;20480;-65
2022/02/01 00:55:30;;;;;;;4.05;1.00;;;;;;;;;;4964756;28;20134;-63
2022/02/01 00:57:56;;;;;;;22.98;2.13;;;;;;;;;;4970676;28;20117;-63
2022/02/01 01:00:24;;;;;;;10.02;1.33;;;;;;;;;;4981428;28;20603;-63
2022/02/01 01:02:53;;;;;;;14.20;2.22;;;;;;;;;;4981383;28;20401;-61
2022/02/01 01:05:21;;;;;;;14.57;1.55;;;;;;;;;;4987485;28;20446;-63
2022/02/01 01:07:49;;;;;;;13.40;1.35;;;;;;;;;;4982234;28;20057;-63
2022/02/01 01:10:19;;;;;;;23.77;2.28;;;;;;;;;;4982970;28;20038;-62
2022/02/01 01:13:02;;;;;;;4.97;0.98;;;;;;;;;;4969808;28;20064;-63
2022/02/01 01:15:32;;;;;;;9.60;1.58;;;;;;;;;;4971260;28;20156;-63
2022/02/01 01:46:07;;;;;;;5.32;1.23;;;;;;;;;;4981705;28;20810;-62
2022/02/01 01:54:02;;;;;;;8.95;1.42;;;;;;;;;;4979483;28;20277;-63
2022/02/01 01:56:34;;;;;;;8.40;1.50;;;;;;;;;;4979371;28;20415;-63
2022/02/01 01:59:03;;;;;;;5.50;0.80;;;;;;;;;;4996113;28;20091;-64
2022/02/01 02:01:32;;;;;;;17.38;1.45;;;;;;;;;;4980036;28;20042;-63
2022/02/01 02:03:58;;;;;;;17.98;2.60;;;;;;;;;;4995263;28;20444;-64
2022/02/01 02:06:25;;;;;;;15.10;1.77;;;;;;;;;;4982449;28;20030;-63
2022/02/01 02:09:01;;;;;;;12.88;1.58;;;;;;;;;;4985408;28;20039;-63
2022/02/01 02:14:21;;;;;;;10.75;1.67;;;;;;;;;;4979636;28;20038;-64
2022/02/01 02:16:48;;;;;;;9.90;1.98;;;;;;;;;;4979159;28;20042;-65
2022/02/01 02:19:16;;;;;;;5.10;0.88;;;;;;;;;;4980115;28;20034;-72
2022/02/01 02:21:45;;;;;;;4.15;0.73;;;;;;;;;;4980439;28;20084;-64
2022/02/01 02:24:13;;;;;;;8.73;1.30;;;;;;;;;;4978769;28;20037;-66
2022/02/01 02:26:42;;;;;;;9.55;1.20;;;;;;;;;;4981333;28;20035;-68
2022/02/01 02:29:10;;;;;;;12.45;1.58;;;;;;;;;;4996608;28;20945;-65
2022/02/01 02:31:39;;;;;;;15.93;1.20;;;;;;;;;;4979179;28;20033;-65
2022/02/01 02:34:12;;;;;;;6.78;0.98;;;;;;;;;;4967030;28;20038;-65
2022/02/01 02:36:44;;;;;;;13.88;1.10;;;;;;;;;;4982216;28;20604;-66
2022/02/01 02:41:53;;;;;;;9.27;2.22;;;;;;;;;;4980707;28;20485;-65
2022/02/01 02:47:07;;;;;;;9.25;1.15;;;;;;;;;;4999073;28;20038;-65
2022/02/01 02:49:37;;;;;;;10.48;1.02;;;;;;;;;;4983077;28;20025;-64
2022/02/01 02:52:07;;;;;;;14.77;1.15;;;;;;;;;;4985298;28;20449;-67
2022/02/01 02:54:35;;;;;;;5.10;1.08;;;;;;;;;;4982792;28;20034;-65
2022/02/01 02:57:08;;;;;;;7.10;0.60;;;;;;;;;;4983167;28;20053;-65
2022/02/01 02:59:34;;;;;;;2.30;0.77;;;;;;;;;;4981756;28;20645;-67
2022/02/01 03:02:00;;;;;;;7.03;0.50;;;;;;;;;;4981608;28;20030;-66
2022/02/01 03:04:29;;;;;;;5.40;1.05;;;;;;;;;;4986976;28;20119;-65
2022/02/01 03:06:58;;;;;;;4.60;0.68;;;;;;;;;;4982499;28;20950;-65
2022/02/01 03:09:26;;;;;;;6.28;0.88;;;;;;;;;;4986982;28;20030;-65
2022/02/01 03:11:56;;;;;;;3.47;0.55;;;;;;;;;;4981811;28;20093;-67
2022/02/01 03:14:28;;;;;;;6.25;1.15;;;;;;;;;;4996182;28;20030;-65
2022/02/01 03:17:21;;;;;;;4.20;0.88;;;;;;;;;;4981906;28;20037;-64
2022/02/01 03:19:53;;;;;;;5.70;0.82;;;;;;;;;;4980151;28;20030;-65
2022/02/01 03:22:22;;;;;;;5.75;1.27;;;;;;;;;;4971517;28;20034;-64
2022/02/01 03:24:48;;;;;;;9.10;0.73;;;;;;;;;;4981339;28;20026;-64
2022/02/01 03:27:16;;;;;;;1.80;0.52;;;;;;;;;;4981902;28;20109;-66
2022/02/01 03:29:41;;;;;;;5.60;0.63;;;;;;;;;;4981671;28;20646;-67
2022/02/01 03:32:10;;;;;;;14.38;1.55;;;;;;;;;;4956422;28;20497;-65
2022/02/01 03:34:38;;;;;;;9.07;0.98;;;;;;;;;;4981684;28;20034;-65
2022/02/01 03:37:09;;;;;;;11.30;0.98;;;;;;;;;;4981367;28;20029;-65
2022/02/01 03:39:35;;;;;;;7.18;0.77;;;;;;;;;;4983810;28;20088;-66
2022/02/01 03:42:05;;;;;;;7.32;1.17;;;;;;;;;;4980088;28;20035;-65
2022/02/01 03:44:34;;;;;;;7.05;0.70;;;;;;;;;;4984942;28;20054;-65
2022/02/01 03:47:02;;;;;;;2.35;0.60;;;;;;;;;;4982119;28;20137;-65
2022/02/01 03:49:31;;;;;;;5.97;0.75;;;;;;;;;;4981720;28;20131;-64
2022/02/01 03:52:03;;;;;;;10.07;1.25;;;;;;;;;;4962368;28;20282;-65
2022/02/01 03:54:33;;;;;;;7.50;0.45;;;;;;;;;;4968380;28;21926;-64
2022/02/01 03:56:59;;;;;;;2.63;0.82;;;;;;;;;;4982306;28;20046;-65
2022/02/01 03:59:30;;;;;;;9.05;0.80;;;;;;;;;;4984023;28;20029;-65
2022/02/01 04:01:56;;;;;;;2.70;0.90;;;;;;;;;;4951746;28;20042;-65
2022/02/01 04:04:30;;;;;;;11.55;0.93;;;;;;;;;;4983211;28;20332;-67
2022/02/01 04:07:00;;;;;;;6.45;0.73;;;;;;;;;;4979600;28;20049;-67
2022/02/01 04:09:29;;;;;;;2.20;0.45;;;;;;;;;;4992839;28;21574;-68
2022/02/01 04:11:57;;;;;;;8.00;1.33;;;;;;;;;;4981727;28;20485;-65
2022/02/01 04:14:31;;;;;;;11.18;0.68;;;;;;;;;;4964058;28;20461;-69
2022/02/01 04:16:58;;;;;;;6.78;0.77;;;;;;;;;;4981368;28;20516;-66
2022/02/01 04:19:25;;;;;;;9.82;1.75;;;;;;;;;;4981932;28;20115;-66
2022/02/01 04:22:02;;;;;;;7.90;1.48;;;;;;;;;;4996259;28;21974;-64
2022/02/01 04:24:28;;;;;;;13.32;0.82;;;;;;;;;;4957381;28;20351;-66
2022/02/01 04:26:54;;;;;;;10.18;1.00;;;;;;;;;;4985487;28;20116;-67
2022/02/01 04:29:19;;;;;;;5.90;0.80;;;;;;;;;;4984344;28;20124;-64
2022/02/01 04:31:50;;;;;;;4.38;0.88;;;;;;;;;;4979208;28;20062;-66
2022/02/01 04:34:18;;;;;;;13.10;1.00;;;;;;;;;;4977098;28;20033;-66
2022/02/01 04:36:46;;;;;;;7.82;0.95;;;;;;;;;;4980594;28;20030;-65
2022/02/01 04:39:14;;;;;;;7.97;0.60;;;;;;;;;;4983222;28;20140;-65
2022/02/01 04:41:41;;;;;;;4.68;1.52;;;;;;;;;;4987546;28;20041;-65
2022/02/01 04:44:07;;;;;;;10.80;1.10;;;;;;;;;;4980165;28;20033;-65
2022/02/01 04:46:52;;;;;;;14.07;0.88;;;;;;;;;;4979794;28;20062;-63
2022/02/01 04:49:22;;;;;;;14.45;1.13;;;;;;;;;;4983194;28;20042;-64
2022/02/01 04:51:50;;;;;;;17.20;1.30;;;;;;;;;;4978703;28;20488;-64
2022/02/01 04:54:20;;;;;;;5.15;1.30;;;;;;;;;;4979003;28;20080;-65
2022/02/01 04:56:48;;;;;;;8.73;1.20;;;;;;;;;;4985732;28;20122;-65
2022/02/01 04:59:13;;;;;;;4.70;1.08;;;;;;;;;;4971774;28;20162;-64
2022/02/01 05:01:45;;;;;;;3.83;0.80;;;;;;;;;;4981179;28;20030;-66
2022/02/01 05:04:19;;;;;;;13.40;1.30;;;;;;;;;;4995850;28;20045;-66
2022/02/01 05:06:47;;;;;;;4.57;0.80;;;;;;;;;;4979216;28;20034;-65
2022/02/01 05:09:12;;;;;;;16.65;1.80;;;;;;;;;;4997102;28;20083;-66
2022/02/01 05:11:38;;;;;;;11.00;1.88;;;;;;;;;;4967813;28;20026;-65
2022/02/01 05:19:13;;;;;;;13.77;1.63;;;;;;;;;;4992753;28;20038;-65
2022/02/01 05:21:39;;;;;;;14.55;1.67;;;;;;;;;;4979781;28;20121;-64
2022/02/01 05:24:09;;;;;;;7.68;1.25;;;;;;;;;;4978786;28;20042;-65
2022/02/01 05:26:39;;;;;;;14.88;1.35;;;;;;;;;;4977591;28;20402;-64
2022/02/01 05:29:04;;;;;;;13.65;1.40;;;;;;;;;;4984148;28;22057;-63
2022/02/01 05:31:30;;;;;;;8.27;1.67;;;;;;;;;;4981708;28;20018;-65
2022/02/01 05:33:58;;;;;;;8.65;1.20;;;;;;;;;;4968474;28;20033;-64
2022/02/01 05:36:23;;;;;;;9.45;1.70;;;;;;;;;;4964389;28;20049;-64
2022/02/01 05:38:52;;;;;;;13.23;1.70;;;;;;;;;;4977674;28;20167;-66
2022/02/01 05:41:22;;;;;;;6.97;1.35;;;;;;;;;;4995952;28;20053;-65
2022/02/01 05:43:50;;;;;;;15.55;1.75;;;;;;;;;;4968172;28;20077;-66
2022/02/01 05:46:17;;;;;;;11.70;1.90;;;;;;;;;;4969250;28;20513;-67
2022/02/01 05:48:47;;;;;;;6.13;1.23;;;;;;;;;;4983321;28;20040;-64
2022/02/01 05:51:13;;;;;;;4.72;0.95;;;;;;;;;;4981448;28;20050;-65
2022/02/01 05:53:43;;;;;;;8.63;1.75;;;;;;;;;;4977113;28;20049;-64
2022/02/01 05:56:12;;;;;;;15.68;1.65;;;;;;;;;;4978672;28;20038;-66
2022/02/01 05:58:38;;;;;;;8.68;1.63;;;;;;;;;;4987216;28;20034;-66
2022/02/01 06:01:08;;;;;;;6.82;1.33;;;;;;;;;;4978807;28;20066;-67
2022/02/01 06:03:34;;;;;;;18.50;2.25;;;;;;;;;;4968664;28;20093;-66
2022/02/01 06:06:03;;;;;;;9.55;2.28;;;;;;;;;;4971553;28;20521;-66
2022/02/01 06:08:34;;;;;;;19.05;2.22;;;;;;;;;;4980935;28;20133;-68
2022/02/01 06:10:59;;;;;;;16.95;1.95;;;;;;;;;;4984246;28;20034;-67
2022/02/01 06:13:27;;;;;;;13.88;1.80;;;;;;;;;;4990938;28;20034;-66
2022/02/01 06:15:55;;;;;;;13.02;2.03;;;;;;;;;;4980669;28;20304;-72
2022/02/01 06:18:23;;;;;;;17.60;1.77;;;;;;;;;;4977850;28;20037;-65
2022/02/01 06:20:50;;;;;;;12.20;2.38;;;;;;;;;;4961699;28;20041;-64
2022/02/01 06:23:20;;;;;;;25.77;2.67;;;;;;;;;;4982905;28;20041;-65
2022/02/01 06:25:50;;;;;;;10.73;1.80;;;;;;;;;;4981181;28;20065;-65
2022/02/01 06:28:19;;;;;;;12.30;2.20;;;;;;;;;;4982537;28;21001;-64
2022/02/01 06:30:46;;;;;;;11.52;1.65;;;;;;;;;;4974138;28;20125;-64
2022/02/01 06:33:15;;;;;;;12.68;1.65;;;;;;;;;;4983140;28;20149;-65
2022/02/01 06:35:43;;;;;;;15.75;3.28;;;;;;;;;;4984233;28;20258;-68
2022/02/01 06:38:09;;;;;;;14.95;2.38;;;;;;;;;;4992200;28;20057;-66
2022/02/01 06:40:35;;;;;;;17.42;2.53;;;;;;;;;;4986750;28;20034;-66
2022/02/01 06:43:01;;;;;;;12.18;3.40;;;;;;;;;;4979941;28;20034;-65
2022/02/01 06:45:26;;;;;;;17.13;2.25;;;;;;;;;;4995851;28;20103;-65
2022/02/01 06:47:55;;;;;;;20.77;3.20;;;;;;;;;;4982428;28;20030;-63
2022/02/01 06:50:25;;;;;;;12.13;2.75;;;;;;;;;;4979760;28;20113;-64
2022/02/01 06:52:56;;;;;;;21.98;2.70;;;;;;;;;;4986047;28;20034;-65
2022/02/01 06:55:33;;;;;;;10.50;2.38;;;;;;;;;;4988090;28;21865;-65
2022/02/01 06:58:03;;;;;;;15.32;2.45;;;;;;;;;;4994478;28;20628;-64
2022/02/01 07:00:30;;;;;;;12.18;2.80;;;;;;;;;;4979971;28;20043;-66
2022/02/01 07:03:02;;;;;;;11.30;4.18;;;;;;;;;;4997332;28;20042;-66
2022/02/01 07:05:28;;;;;;;16.88;4.68;;;;;;;;;;4977500;28;20064;-63
2022/02/01 07:07:53;;;;;;;25.95;3.42;;;;;;;;;;4980453;28;20034;-64
2022/02/01 07:10:21;;;;;;;14.40;2.67;;;;;;;;;;4996838;28;20160;-63
2022/02/01 07:12:46;;;;;;;14.57;3.10;;;;;;;;;;4985436;28;20029;-63
2022/02/01 07:15:12;;;;;;;17.38;3.67;;;;;;;;;;4968590;28;20033;-64
2022/02/01 07:17:48;;;;;;;16.02;3.30;;;;;;;;;;4980524;28;20026;-64
2022/02/01 07:20:14;;;;;;;13.20;3.25;;;;;;;;;;4994722;28;20033;-63
2022/02/01 07:22:45;;;;;;;17.30;2.85;;;;;;;;;;4980324;28;20080;-63
2022/02/01 07:25:22;;;;;;;16.88;2.83;;;;;;;;;;4984625;28;20058;-65
2022/02/01 07:27:51;;;;;;;9.13;3.35;;;;;;;;;;4982304;28;20069;-62
2022/02/01 07:30:19;;;;;;;12.13;3.42;;;;;;;;;;4979594;28;20053;-62
2022/02/01 07:32:48;;;;;;;17.35;3.78;;;;;;;;;;4980305;28;20026;-62
2022/02/01 07:35:14;;;;;;;10.63;3.13;;;;;;;;;;4996321;28;20804;-63
2022/02/01 07:37:40;;;;;;;9.93;4.03;;;;;;;;;;4984374;28;20038;-65
2022/02/01 07:40:08;;;;;;;18.08;3.78;;;;;;;;;;4987943;28;20318;-62
2022/02/01 07:42:36;;;;;;;10.05;3.17;;;;;;;;;;4980607;28;20037;-63
2022/02/01 07:45:11;;;;;;;12.80;3.63;;;;;;;;;;4979083;28;20037;-64
2022/02/01 07:47:36;;;;;;;11.27;3.67;;;;;;;;;;4968502;28;20057;-62
2022/02/01 07:50:05;;;;;;;9.02;3.60;;;;;;;;;;4985600;28;20031;-62
2022/02/01 07:52:33;;;;;;;10.70;3.70;;;;;;;;;;4986342;28;20053;-62
2022/02/01 07:54:59;;;;;;;11.02;3.63;;;;;;;;;;4963259;28;20042;-63
2022/02/01 07:57:27;;;;;;;10.35;4.22;;;;;;;;;;4975130;28;20033;-62
2022/02/01 07:59:53;;;;;;;9.40;3.85;;;;;;;;;;4993048;28;20609;-62
2022/02/01 08:02:24;;;;;;;12.07;3.92;;;;;;;;;;4966880;28;20116;-62
2022/02/01 08:04:53;;;;;;;10.10;3.65;;;;;;;;;;4982248;28;20835;-62
2022/02/01 08:07:22;;;;;;;7.60;3.40;;;;;;;;;;4977877;28;20037;-62
2022/02/01 08:09:51;;;;;;;7.38;3.35;;;;;;;;;;4968606;28;20026;-61
2022/02/01 08:20:01;;;;;;;5.38;2.92;;;;;;;;;;4980692;28;20553;-62
2022/02/01 08:23:11;;;;;;;5.57;3.05;;;;;;;;;;4983185;28;20085;-61
2022/02/01 08:25:15;;;;;;;8.38;3.30;;;;;;;;;;4978223;28;20060;-60
2022/02/01 08:27:41;;;;;;;5.90;3.22;;;;;;;;;;4980399;28;20265;-61
2022/02/01 08:30:11;;;;;;;6.85;2.70;;;;;;;;;;4983604;28;20034;-60
2022/02/01 08:32:39;;;;;;;9.32;2.92;;;;;;;;;;4980411;28;21268;-62
2022/02/01 08:35:12;;;;;;;6.95;2.97;;;;;;;;;;4979909;28;20120;-61
2022/02/01 08:37:40;;;;;;;5.97;2.60;;;;;;;;;;4987542;28;20057;-61
2022/02/01 08:40:08;;;;;;;6.32;3.38;;;;;;;;;;4969057;28;20121;-61
2022/02/01 08:42:35;;;;;;;5.45;2.80;;;;;;;;;;4977580;28;20034;-61
2022/02/01 08:45:06;;;;;;;8.55;3.58;;;;;;;;;;4981503;28;20167;-61
2022/02/01 08:47:31;;;;;;;4.55;2.40;;;;;;;;;;4971272;28;20045;-61
2022/02/01 08:49:59;;;;;;;4.00;2.67;;;;;;;;;;4969675;28;20390;-62
2022/02/01 08:52:37;;;;;;;6.32;2.15;;;;;;;;;;4963030;28;20085;-61
2022/02/01 08:55:07;;;;;;;3.90;2.10;;;;;;;;;;4969657;28;20078;-61
2022/02/01 08:57:33;;;;;;;2.65;1.95;;;;;;;;;;4984621;28;20022;-61
2022/02/01 09:00:07;;;;;;;3.70;2.35;;;;;;;;;;4962622;28;20742;-61
2022/02/01 09:02:35;;;;;;;5.72;2.88;;;;;;;;;;4980378;28;20101;-61
2022/02/01 09:05:04;;;;;;;4.18;2.33;;;;;;;;;;4978491;28;20924;-62
2022/02/01 09:07:30;;;;;;;1.85;1.65;;;;;;;;;;4977418;28;20504;-63
2022/02/01 09:09:55;;;;;;;3.70;1.95;;;;;;;;;;4979847;28;20054;-61
2022/02/01 09:12:23;;;;;;;6.13;1.70;;;;;;;;;;4964563;28;20053;-65
2022/02/01 09:14:55;;;;;;;2.90;1.42;;;;;;;;;;4979037;28;20117;-62
2022/02/01 09:17:20;;;;;;;2.45;1.70;;;;;;;;;;4983104;28;20046;-63
2022/02/01 09:19:49;;;;;;;2.20;1.63;;;;;;;;;;4977746;28;20041;-62
2022/02/01 09:22:17;;;;;;;4.18;1.40;;;;;;;;;;4979428;28;20085;-65
2022/02/01 09:24:45;;;;;;;2.15;1.60;;;;;;;;;;4977614;28;20033;-63
2022/02/01 09:27:15;;;;;;;2.40;1.50;;;;;;;;;;4979029;28;20145;-62
2022/02/01 09:29:41;;;;;;;4.50;1.30;;;;;;;;;;4979360;28;20458;-61
2022/02/01 09:32:09;;;;;;;2.78;1.65;;;;;;;;;;4965154;28;20046;-63
2022/02/01 09:34:37;;;;;;;2.70;1.27;;;;;;;;;;4983343;28;20034;-62
2022/02/01 09:37:05;;;;;;;3.42;1.38;;;;;;;;;;4979072;28;20018;-65
2022/02/01 09:39:33;;;;;;;2.40;1.38;;;;;;;;;;4963622;28;20037;-62
2022/02/01 09:42:01;;;;;;;2.17;1.17;;;;;;;;;;4966351;28;20109;-65
2022/02/01 09:44:28;;;;;;;1.83;1.17;;;;;;;;;;4952197;28;20106;-63
2022/02/01 09:46:54;;;;;;;5.85;1.20;;;;;;;;;;4978178;28;21960;-62
2022/02/01 09:49:22;;;;;;;1.40;1.30;;;;;;;;;;4979565;28;20038;-65
2022/02/01 09:51:57;;;;;;;1.33;0.93;;;;;;;;;;4981801;28;20068;-64
2022/02/01 09:54:28;;;;;;;1.30;1.00;;;;;;;;;;4978050;28;20410;-63
2022/02/01 09:56:54;;;;;;;1.40;1.20;;;;;;;;;;4977542;28;20030;-62
2022/02/01 09:59:21;;;;;;;1.63;0.57;;;;;;;;;;4978433;28;20026;-62
2022/02/01 10:01:55;;;;;;;1.30;1.10;;;;;;;;;;4977673;28;20979;-60
2022/02/01 10:04:26;;;;;;;1.80;0.80;;;;;;;;;;4979867;28;20113;-62
2022/02/01 10:06:52;;;;;;;1.42;0.90;;;;;;;;;;4979770;28;20034;-64
2022/02/01 10:09:17;;;;;;;1.70;1.17;;;;;;;;;;4979011;28;20502;-67
2022/02/01 10:11:46;;;;;;;3.60;1.08;;;;;;;;;;4969361;28;20033;-63
2022/02/01 10:14:21;;;;;;;1.48;1.10;;;;;;;;;;4982095;28;20034;-63
2022/02/01 10:16:53;;;;;;;2.22;1.05;;;;;;;;;;4973450;28;20033;-63
2022/02/01 10:19:22;;;;;;;2.08;1.15;;;;;;;;;;4981355;28;20034;-63
2022/02/01 10:21:54;;;;;;;1.83;1.00;;;;;;;;;;4980936;28;20056;-65
2022/02/01 10:24:39;;;;;;;2.78;1.02;;;;;;;;;;4978662;28;20041;-64
2022/02/01 10:27:18;;;;;;;2.47;1.02;;;;;;;;;;4977826;28;20038;-64
2022/02/01 10:30:01;;;;;;;3.20;1.10;;;;;;;;;;4968792;28;20116;-67
2022/02/01 10:32:54;;;;;;;2.45;1.08;;;;;;;;;;4976400;28;20482;-64
2022/02/01 10:37:59;;;;;;;3.08;1.08;;;;;;;;;;4977748;28;20216;-69
2022/02/01 10:40:35;;;;;;;2.22;1.00;;;;;;;;;;4978777;28;20065;-63
2022/02/01 10:43:04;;;;;;;2.15;1.13;;;;;;;;;;4977119;28;20122;-62
2022/02/01 10:45:42;;;;;;;2.70;0.95;;;;;;;;;;4957372;28;20100;-64
2022/02/01 10:48:12;;;;;;;5.13;0.82;;;;;;;;;;4976696;28;20092;-68
2022/02/01 10:50:39;;;;;;;2.08;1.17;;;;;;;;;;4978272;28;20071;-63
2022/02/01 10:53:15;;;;;;;7.63;1.35;;;;;;;;;;4978608;28;20088;-64
2022/02/01 10:55:48;;;;;;;3.72;1.40;;;;;;;;;;4979574;28;20084;-64
2022/02/01 10:58:15;;;;;;;3.20;1.38;;;;;;;;;;4982761;28;20041;-63
2022/02/01 11:00:43;;;;;;;3.72;1.40;;;;;;;;;;4976700;28;20445;-64
2022/02/01 11:03:14;;;;;;;8.82;1.73;;;;;;;;;;4978293;28;20545;-63
2022/02/01 11:05:40;;;;;;;5.78;1.80;;;;;;;;;;4984427;28;20141;-69
2022/02/01 11:08:12;;;;;;;2.58;1.50;;;;;;;;;;4996411;28;20030;-64
2022/02/01 11:10:44;;;;;;;5.55;1.50;;;;;;;;;;4977797;28;20041;-62
2022/02/01 11:13:10;;;;;;;5.95;1.77;;;;;;;;;;4981328;28;20038;-63
2022/02/01 11:15:39;;;;;;;6.18;1.77;;;;;;;;;;4995701;28;20354;-64
2022/02/01 11:18:24;;;;;;;7.20;1.52;;;;;;;;;;4980833;28;20379;-68
2022/02/01 11:20:53;;;;;;;3.15;1.13;;;;;;;;;;4980619;28;20037;-69
2022/02/01 11:23:22;;;;;;;4.80;1.55;;;;;;;;;;4982015;28;20034;-68
2022/02/01 11:25:51;;;;;;;5.53;2.08;;;;;;;;;;4979907;28;20063;-64
2022/02/01 11:28:36;;;;;;;8.40;1.60;;;;;;;;;;4978098;28;20057;-65
2022/02/01 11:31:06;;;;;;;13.73;2.25;;;;;;;;;;4982333;28;20023;-61
2022/02/01 11:33:44;;;;;;;7.55;1.50;;;;;;;;;;4983160;28;20041;-63
2022/02/01 11:36:15;;;;;;;8.88;2.15;;;;;;;;;;4980397;28;20061;-63
2022/02/01 11:38:50;;;;;;;5.40;2.28;;;;;;;;;;4983511;28;20035;-62
2022/02/01 11:41:19;;;;;;;9.32;2.22;;;;;;;;;;4971417;28;20061;-68
2022/02/01 11:43:47;;;;;;;10.68;2.00;;;;;;;;;;4971265;28;20049;-62
2022/02/01 11:46:17;;;;;;;9.90;1.80;;;;;;;;;;4977245;28;20107;-64
2022/02/01 11:48:49;;;;;;;8.77;1.48;;;;;;;;;;4978332;28;20121;-67
2022/02/01 11:51:22;;;;;;;16.05;1.75;;;;;;;;;;4996648;28;20063;-61
2022/02/01 11:53:58;;;;;;;5.72;1.10;;;;;;;;;;4994087;28;20410;-62
2022/02/01 11:56:30;;;;;;;5.43;1.42;;;;;;;;;;4980895;28;20096;-62
2022/02/01 11:59:00;;;;;;;12.35;1.85;;;;;;;;;;4979618;28;20037;-61
2022/02/01 12:01:33;;;;;;;7.53;1.42;;;;;;;;;;4995379;28;20030;-62
2022/02/01 12:04:01;;;;;;;7.43;1.60;;;;;;;;;;4979958;28;20073;-63
2022/02/01 12:06:36;;;;;;;14.05;1.92;;;;;;;;;;4981206;28;20029;-62
2022/02/01 12:09:09;;;;;;;8.02;1.50;;;;;;;;;;4983615;28;20617;-62
2022/02/01 12:11:37;;;;;;;15.30;1.67;;;;;;;;;;4968916;28;20077;-61
2022/02/01 12:14:05;;;;;;;16.10;1.40;;;;;;;;;;4980366;28;20205;-63
2022/02/01 12:16:31;;;;;;;9.98;1.65;;;;;;;;;;4968476;28;20030;-64
2022/02/01 12:19:00;;;;;;;13.13;2.10;;;;;;;;;;4980478;28;20038;-66
2022/02/01 12:21:36;;;;;;;13.68;2.30;;;;;;;;;;4981889;28;20045;-64
2022/02/01 12:24:10;;;;;;;24.00;2.85;;;;;;;;;;4982702;28;20052;-64
2022/02/01 12:26:39;;;;;;;16.23;2.40;;;;;;;;;;4979878;28;20254;-64
2022/02/01 12:29:06;;;;;;;17.67;1.80;;;;;;;;;;4983520;28;20117;-64
2022/02/01 12:31:33;;;;;;;17.52;2.10;;;;;;;;;;4979072;28;20037;-61
2022/02/01 12:34:02;;;;;;;18.33;2.53;;;;;;;;;;4979488;28;20110;-68
2022/02/01 12:36:34;;;;;;;11.93;2.05;;;;;;;;;;4980949;28;20030;-63
2022/02/01 12:39:00;;;;;;;21.60;2.50;;;;;;;;;;4981082;28;21018;-63
2022/02/01 12:41:32;;;;;;;19.85;2.40;;;;;;;;;;4979784;28;20034;-62
2022/02/01 12:46:43;;;;;;;18.17;2.20;;;;;;;;;;4980329;28;20069;-66
2022/02/01 12:49:08;;;;;;;16.88;2.70;;;;;;;;;;4979325;28;20440;-64
2022/02/01 12:51:55;;;;;;;17.83;2.70;;;;;;;;;;4979077;28;20045;-66
2022/02/01 12:54:21;;;;;;;40.20;3.35;;;;;;;;;;4975313;28;20052;-66
2022/02/01 12:56:49;;;;;;;27.65;2.70;;;;;;;;;;4976411;28;20034;-63
2022/02/01 12:59:21;;;;;;;22.40;2.38;;;;;;;;;;4994624;28;20094;-63
2022/02/01 13:01:50;;;;;;;14.35;2.47;;;;;;;;;;4991266;28;20034;-68
2022/02/01 13:04:22;;;;;;;21.15;2.35;;;;;;;;;;4973932;28;20088;-63
2022/02/01 13:06:51;;;;;;;;;;;;;;;;;;4974286;28;20033;-67
2022/02/01 13:14:58;;;;;;;20.77;3.38;;;;;;;;;;4980765;28;20062;-63
2022/02/01 13:20:06;;;;;;;34.00;3.15;;;;;;;;;;4979321;28;20417;-63
2022/02/01 13:22:33;;;;;;;25.65;3.00;;;;;;;;;;4977786;28;20433;-66
2022/02/01 13:25:07;;;;;;;14.82;2.35;;;;;;;;;;4979185;28;20034;-69
2022/02/01 13:27:33;;;;;;;19.00;2.72;;;;;;;;;;4963100;28;20046;-69
2022/02/01 13:30:05;;;;;;;14.20;2.33;;;;;;;;;;4983010;28;20059;-64
2022/02/01 13:32:42;;;;;;;23.42;3.33;;;;;;;;;;4980361;28;20053;-66
2022/02/01 13:35:10;;;;;;;24.00;2.47;;;;;;;;;;4978653;28;20044;-64
2022/02/01 13:37:44;;;;;;;24.05;3.70;;;;;;;;;;4979675;28;20056;-62
2022/02/01 13:40:10;;;;;;;24.33;2.92;;;;;;;;;;4975475;28;20141;-68
2022/02/01 13:42:38;;;;;;;29.80;3.38;;;;;;;;;;4976167;28;20030;-65
2022/02/01 13:45:06;;;;;;;29.30;2.85;;;;;;;;;;4971274;28;20345;-66
2022/02/01 13:47:42;;;;;;;26.52;3.35;;;;;;;;;;4986528;28;20031;-64
2022/02/01 13:50:28;;;;;;;23.40;3.33;;;;;;;;;;4978664;28;21979;-64
2022/02/01 13:52:55;;;;;;;25.15;2.55;;;;;;;;;;4977063;28;20133;-68
2022/02/01 13:55:24;;;;;;;26.63;2.45;;;;;;;;;;4979740;28;20502;-61
2022/02/01 13:57:59;;;;;;;25.40;2.50;;;;;;;;;;4977239;28;20027;-67
2022/02/01 14:00:32;;;;;;;23.95;2.67;;;;;;;;;;4976130;28;20157;-67
2022/02/01 14:03:11;;;;;;;36.90;3.80;;;;;;;;;;4980156;28;20371;-67
2022/02/01 14:05:42;;;;;;;38.00;3.83;;;;;;;;;;4979181;28;20038;-68
2022/02/01 14:08:27;;;;;;;16.20;2.22;;;;;;;;;;4987477;28;20080;-68
2022/02/01 14:11:22;;;;;;;19.50;3.45;;;;;;;;;;4984170;28;20109;-68
2022/02/01 14:35:41;;;;;;;20.52;2.88;;;;;;;;;;4909442;28;20522;-63
2022/02/01 14:38:30;;;;;;;37.38;3.63;;;;;;;;;;4924340;28;20043;-67
2022/02/01 14:43:50;;;;;;;26.65;3.85;;;;;;;;;;4982773;28;20088;-63
2022/02/01 14:46:20;;;;;;;34.35;4.85;;;;;;;;;;4982620;28;20030;-66
2022/02/01 14:48:51;;;;;;;22.13;3.75;;;;;;;;;;4982291;28;20521;-67
2022/02/01 14:51:21;;;;;;;34.35;3.13;;;;;;;;;;4982899;28;21923;-66
2022/02/01 14:53:52;;;;;;;34.47;4.20;;;;;;;;;;4980074;28;20369;-67
2022/02/01 14:56:25;;;;;;;41.60;4.40;;;;;;;;;;4982472;28;20031;-69
2022/02/01 15:12:49;;;;;;;31.08;3.83;;;;;;;;;;4984827;28;20149;-67
2022/02/01 15:15:16;;;;;;;32.60;3.35;;;;;;;;;;4995286;28;20790;-67
2022/02/01 15:17:44;;;;;;;22.88;3.60;;;;;;;;;;4966984;28;20038;-68
2022/02/01 15:20:10;;;;;;;40.03;4.43;;;;;;;;;;4968655;28;20026;-67
2022/02/01 15:22:44;;;;;;;37.20;3.97;;;;;;;;;;4964806;28;20031;-70
2022/02/01 15:25:09;;;;;;;23.73;4.65;;;;;;;;;;4980317;28;20057;-62
2022/02/01 15:27:48;;;;;;;35.00;5.30;;;;;;;;;;4982202;28;20857;-65
2022/02/01 15:30:18;;;;;;;46.38;4.47;;;;;;;;;;4981651;28;20113;-65
2022/02/01 15:32:48;;;;;;;36.08;3.92;;;;;;;;;;4981899;28;20042;-63
2022/02/01 15:35:17;;;;;;;53.80;5.28;;;;;;;;;;4979581;28;20037;-64
2022/02/01 15:37:51;;;;;;;36.08;4.15;;;;;;;;;;4994845;28;20034;-63
2022/02/01 15:59:36;;;;;;;44.67;4.68;;;;;;;;;;4979956;28;22001;-67
2022/02/01 16:02:15;;;;;;;30.58;4.25;;;;;;;;;;4981167;28;20916;-65
2022/02/01 16:04:51;;;;;;;41.55;5.50;;;;;;;;;;4984331;28;20238;-64
2022/02/01 16:07:20;;;;;;;40.22;5.15;;;;;;;;;;4978450;28;20117;-63
2022/02/01 16:12:30;;;;;;;52.92;5.47;;;;;;;;;;4978212;28;20035;-64
2022/02/01 16:14:59;;;;;;;51.28;5.20;;;;;;;;;;4980495;28;20718;-64
2022/02/01 16:17:27;;;;;;;50.75;5.18;;;;;;;;;;4966903;28;20033;-63
2022/02/01 16:20:02;;;;;;;47.90;4.88;;;;;;;;;;4979926;28;20038;-66
2022/02/01 16:22:30;;;;;;;47.88;4.13;;;;;;;;;;4986430;28;20896;-65
2022/02/01 16:25:01;;;;;;;43.63;5.30;;;;;;;;;;4977968;28;20033;-62
2022/02/01 16:27:31;;;;;;;41.70;4.80;;;;;;;;;;4995466;28;20042;-63
2022/02/01 16:30:06;;;;;;;34.63;4.90;;;;;;;;;;4984036;28;20046;-66
2022/02/01 16:32:33;;;;;;;59.13;6.28;;;;;;;;;;4980688;28;20042;-64
2022/02/01 16:35:04;;;;;;;39.10;4.60;;;;;;;;;;4982734;28;20603;-63
2022/02/01 16:37:32;;;;;;;50.33;5.45;;;;;;;;;;4978670;28;20650;-63
2022/02/01 16:40:02;;;;;;;39.03;4.10;;;;;;;;;;4982300;28;20057;-63
2022/02/01 16:42:33;;;;;;;57.00;6.15;;;;;;;;;;4977176;28;20105;-63
2022/02/01 16:45:05;;;;;;;30.65;5.88;;;;;;;;;;4992527;28;20072;-67
2022/02/01 16:47:30;;;;;;;48.15;5.43;;;;;;;;;;4975734;28;20034;-64
2022/02/01 16:49:56;;;;;;;59.60;6.60;;;;;;;;;;4965391;28;20516;-65
2022/02/01 16:52:28;;;;;;;47.20;6.28;;;;;;;;;;4963813;28;20137;-68
2022/02/01 16:55:07;;;;;;;45.53;5.10;;;;;;;;;;4979126;28;20048;-65
2022/02/01 16:57:45;;;;;;;47.75;5.65;;;;;;;;;;4964528;28;20175;-63
2022/02/01 17:00:14;;;;;;;33.95;4.95;;;;;;;;;;4980268;28;20037;-64
2022/02/01 17:02:42;;;;;;;52.58;5.10;;;;;;;;;;4978140;28;20033;-64
2022/02/01 17:05:09;;;;;;;31.77;4.50;;;;;;;;;;4963065;28;20065;-66
2022/02/01 17:07:35;;;;;;;60.92;5.43;;;;;;;;;;4978343;28;20096;-65
2022/02/01 17:10:01;;;;;;;52.78;5.70;;;;;;;;;;4979541;28;20037;-66
2022/02/01 17:12:43;;;;;;;50.85;6.18;;;;;;;;;;4978824;28;20041;-63
2022/02/01 17:23:08;;;;;;;55.50;5.13;;;;;;;;;;4977422;28;20037;-67
2022/02/01 17:25:36;;;;;;;60.22;5.32;;;;;;;;;;4978800;28;20710;-67
2022/02/01 17:28:04;;;;;;;47.95;5.32;;;;;;;;;;4981657;28;20327;-65
2022/02/01 17:30:32;;;;;;;51.88;6.43;;;;;;;;;;4968402;28;20350;-67
2022/02/01 17:32:59;;;;;;;60.80;6.95;;;;;;;;;;4993679;28;20516;-66